createdAt,value
2018-06-17T00:00:57.445Z,1.57
2018-06-17T00:03:26.209Z,2.13
2018-06-17T00:06:01.245Z,1.80
2018-06-17T00:08:30.289Z,1.97
2018-06-17T00:10:58.717Z,1.83
2018-06-17T00:13:27.182Z,2.33
2018-06-17T00:15:55.817Z,2.50
2018-06-17T00:18:24.261Z,2.23
2018-06-17T00:20:52.741Z,3.03
2018-06-17T00:23:21.835Z,2.60
2018-06-17T00:25:50.734Z,2.80
2018-06-17T00:28:19.258Z,2.80
2018-06-17T00:30:48.197Z,2.57
2018-06-17T00:33:16.985Z,3.00
2018-06-17T00:35:45.449Z,2.77
2018-06-17T00:38:14.245Z,3.30
2018-06-17T00:40:42.758Z,2.97
2018-06-17T00:43:11.317Z,3.47
2018-06-17T00:45:40.002Z,2.70
2018-06-17T00:48:08.442Z,2.80
2018-06-17T00:50:37.885Z,2.60
2018-06-17T00:53:06.331Z,3.20
2018-06-17T00:55:34.763Z,2.63
2018-06-17T00:58:03.823Z,3.03
2018-06-17T01:00:32.573Z,2.20
2018-06-17T01:03:01.005Z,1.77
2018-06-17T01:05:29.933Z,1.90
2018-06-17T01:07:58.605Z,1.90
2018-06-17T01:10:27.793Z,1.40
2018-06-17T01:12:56.363Z,1.83
2018-06-17T01:15:25.049Z,1.40
2018-06-17T01:17:53.468Z,2.50
2018-06-17T01:20:21.925Z,1.40
2018-06-17T01:22:51.454Z,1.37
2018-06-17T01:25:19.890Z,1.30
2018-06-17T01:27:48.334Z,1.20
2018-06-17T01:30:17.367Z,0.90
2018-06-17T01:32:46.058Z,1.37
2018-06-17T01:35:14.520Z,1.30
2018-06-17T01:37:43.165Z,1.00
2018-06-17T01:40:11.678Z,1.30
2018-06-17T01:42:40.115Z,1.20
2018-06-17T01:45:09.053Z,1.50
2018-06-17T01:47:37.469Z,1.50
2018-06-17T01:50:06.022Z,1.63
2018-06-17T01:52:34.478Z,1.70
2018-06-17T01:55:03.149Z,1.70
2018-06-17T01:57:31.594Z,1.67
2018-06-17T02:00:00.282Z,1.37
2018-06-17T02:02:28.791Z,1.77
2018-06-17T02:05:02.638Z,1.90
2018-06-17T02:07:36.277Z,1.83
2018-06-17T02:10:10.688Z,1.80
2018-06-17T02:12:40.221Z,2.30
2018-06-17T02:15:08.662Z,1.83
2018-06-17T02:17:37.113Z,1.23
2018-06-17T02:20:05.622Z,1.67
2018-06-17T02:22:34.057Z,1.57
2018-06-17T02:25:02.573Z,1.33
2018-06-17T02:27:31.853Z,1.50
2018-06-17T02:30:01.110Z,1.37
2018-06-17T02:32:29.533Z,1.53
2018-06-17T02:34:58.186Z,1.77
2018-06-17T02:37:26.954Z,1.50
2018-06-17T02:39:55.913Z,1.33
2018-06-17T02:42:24.595Z,1.60
2018-06-17T02:44:58.522Z,1.40
2018-06-17T02:47:32.328Z,1.77
2018-06-17T02:50:06.150Z,1.70
2018-06-17T02:52:39.873Z,1.80
2018-06-17T02:55:08.615Z,1.80
2018-06-17T02:57:37.148Z,1.60
2018-06-17T03:00:05.645Z,1.70
2018-06-17T03:02:34.684Z,1.40
2018-06-17T03:05:03.225Z,1.80
2018-06-17T03:07:31.684Z,1.53
2018-06-17T03:10:00.444Z,1.40
2018-06-17T03:12:29.445Z,1.80
2018-06-17T03:14:57.953Z,1.50
2018-06-17T03:17:26.993Z,1.27
2018-06-17T03:19:58.647Z,1.63
2018-06-17T03:22:27.150Z,1.13
2018-06-17T03:25:01.189Z,1.20
2018-06-17T03:27:34.805Z,1.60
2018-06-17T03:30:08.525Z,1.00
2018-06-17T03:32:42.185Z,1.20
2018-06-17T03:35:16.102Z,1.10
2018-06-17T03:37:44.723Z,1.10
2018-06-17T03:40:13.473Z,1.63
2018-06-17T03:42:41.903Z,1.30
2018-06-17T03:45:10.356Z,1.50
2018-06-17T03:47:39.241Z,1.23
2018-06-17T03:50:07.773Z,1.20
2018-06-17T03:52:36.280Z,1.53
2018-06-17T03:55:04.877Z,1.40
2018-06-17T03:57:33.710Z,1.27
2018-06-17T04:00:03.482Z,1.67
2018-06-17T04:02:34.213Z,1.53
2018-06-17T04:05:07.935Z,1.67
2018-06-17T04:07:36.933Z,1.83
2018-06-17T04:10:05.697Z,1.93
2018-06-17T04:12:35.109Z,1.97
2018-06-17T04:15:04.019Z,1.60
2018-06-17T04:17:32.509Z,2.13
2018-06-17T04:20:01.430Z,1.70
2018-06-17T04:22:29.903Z,1.40
2018-06-17T04:24:58.321Z,2.00
2018-06-17T04:27:26.816Z,2.50
2018-06-17T04:29:55.727Z,2.87
2018-06-17T04:32:24.162Z,3.33
2018-06-17T04:34:53.877Z,3.60
2018-06-17T04:37:22.534Z,3.10
2018-06-17T04:39:51.245Z,4.10
2018-06-17T04:42:19.661Z,3.87
2018-06-17T04:44:48.582Z,4.23
2018-06-17T04:47:17.242Z,4.63
2018-06-17T04:49:45.678Z,4.80
2018-06-17T04:52:14.230Z,5.40
2018-06-17T04:54:42.941Z,6.00
2018-06-17T04:57:11.653Z,5.23
2018-06-17T04:59:40.217Z,6.10
2018-06-17T05:02:08.729Z,5.83
2018-06-17T05:04:37.453Z,5.90
2018-06-17T05:07:06.333Z,6.17
2018-06-17T05:09:34.761Z,7.10
2018-06-17T05:12:03.565Z,6.40
2018-06-17T05:14:32.275Z,6.07
2018-06-17T05:17:00.868Z,5.57
2018-06-17T05:19:29.521Z,6.03
2018-06-17T05:21:58.269Z,6.20
2018-06-17T05:24:26.720Z,5.77
2018-06-17T05:26:55.154Z,6.00
2018-06-17T05:29:23.893Z,5.30
2018-06-17T05:31:52.501Z,5.47
2018-06-17T05:34:20.957Z,4.70
2018-06-17T05:36:49.741Z,5.07
2018-06-17T05:39:18.407Z,4.60
2018-06-17T05:41:46.873Z,4.47
2018-06-17T05:44:15.317Z,4.40
2018-06-17T05:46:43.833Z,4.70
2018-06-17T05:49:12.273Z,4.30
2018-06-17T05:51:40.740Z,4.50
2018-06-17T05:54:09.598Z,4.83
2018-06-17T05:56:38.063Z,4.13
2018-06-17T05:59:06.548Z,4.23
2018-06-17T06:01:35.057Z,3.70
2018-06-17T06:04:03.620Z,4.20
2018-06-17T06:06:32.026Z,4.00
2018-06-17T06:09:00.530Z,3.30
2018-06-17T06:11:29.090Z,3.47
2018-06-17T06:13:57.561Z,2.80
2018-06-17T06:16:26.413Z,2.87
2018-06-17T06:18:55.058Z,2.70
2018-06-17T06:21:23.820Z,2.77
2018-06-17T06:23:52.245Z,2.83
2018-06-17T06:26:20.695Z,2.83
2018-06-17T06:28:49.370Z,2.80
2018-06-17T06:31:17.850Z,2.30
2018-06-17T06:33:47.194Z,3.33
2018-06-17T06:36:16.614Z,2.93
2018-06-17T06:38:45.030Z,3.53
2018-06-17T06:41:13.445Z,3.20
2018-06-17T06:43:42.117Z,3.33
2018-06-17T06:46:10.762Z,3.53
2018-06-17T06:48:39.206Z,3.37
2018-06-17T06:51:07.885Z,3.70
2018-06-17T06:53:36.511Z,4.23
2018-06-17T06:56:05.354Z,3.63
2018-06-17T06:58:33.830Z,4.10
2018-06-17T07:01:02.567Z,4.00
2018-06-17T07:03:42.443Z,3.73
2018-06-17T07:06:22.199Z,3.80
2018-06-17T07:09:02.355Z,3.70
2018-06-17T07:11:31.082Z,4.27
2018-06-17T07:13:59.691Z,4.57
2018-06-17T07:16:40.820Z,4.40
2018-06-17T07:19:09.623Z,3.97
2018-06-17T07:21:38.109Z,4.20
2018-06-17T07:24:07.941Z,3.73
2018-06-17T07:26:52.893Z,4.13
2018-06-17T07:29:36.950Z,3.90
2018-06-17T07:32:05.730Z,3.63
2018-06-17T07:34:34.645Z,4.03
2018-06-17T07:37:03.390Z,3.93
2018-06-17T07:41:40.149Z,3.63
2018-06-17T07:44:08.745Z,3.47
2018-06-17T07:46:37.241Z,3.55
2018-06-17T07:49:47.717Z,3.15
2018-06-17T07:52:28.547Z,3.15
2018-06-17T07:54:57.906Z,2.95
2018-06-17T07:57:27.607Z,3.42
2018-06-17T07:59:56.147Z,2.90
2018-06-17T08:02:25.329Z,2.40
2018-06-17T08:04:53.902Z,2.10
2018-06-17T08:07:22.541Z,2.37
2018-06-17T08:09:51.043Z,2.33
2018-06-17T08:12:19.571Z,2.20
2018-06-17T08:14:47.981Z,2.10
2018-06-17T08:17:16.597Z,2.40
2018-06-17T08:19:45.185Z,2.40
2018-06-17T08:22:13.860Z,2.30
2018-06-17T08:24:42.969Z,2.25
2018-06-17T08:27:11.390Z,2.00
2018-06-17T08:29:39.985Z,2.30
2018-06-17T08:32:08.437Z,2.30
2018-06-17T08:34:36.867Z,1.80
2018-06-17T08:37:05.897Z,2.10
2018-06-17T08:39:34.361Z,2.00
2018-06-17T08:42:02.774Z,2.20
2018-06-17T08:44:31.409Z,2.17
2018-06-17T08:47:00.528Z,2.35
2018-06-17T08:49:29.029Z,2.40
2018-06-17T08:51:57.777Z,2.10
2018-06-17T08:54:26.489Z,2.20
2018-06-17T08:56:54.934Z,1.90
2018-06-17T08:59:23.392Z,2.10
2018-06-17T09:01:52.032Z,2.00
2018-06-17T09:04:20.450Z,2.35
2018-06-17T09:06:48.865Z,2.17
2018-06-17T09:09:17.549Z,2.62
2018-06-17T09:11:46.201Z,2.20
2018-06-17T09:14:14.633Z,2.42
2018-06-17T09:16:43.097Z,2.75
2018-06-17T09:19:12.065Z,1.95
2018-06-17T09:21:40.918Z,1.90
2018-06-17T09:24:09.391Z,2.10
2018-06-17T09:26:38.171Z,2.50
2018-06-17T09:29:06.605Z,2.40
2018-06-17T09:31:35.174Z,3.17
2018-06-17T09:34:03.636Z,2.60
2018-06-17T09:36:33.046Z,2.87
2018-06-17T09:39:02.510Z,2.87
2018-06-17T09:41:31.306Z,2.77
2018-06-17T09:44:00.405Z,2.67
2018-06-17T09:46:29.143Z,2.85
2018-06-17T09:48:57.563Z,2.72
2018-06-17T09:51:26.232Z,2.85
2018-06-17T09:53:54.830Z,2.92
2018-06-17T09:56:23.257Z,2.72
2018-06-17T09:58:51.782Z,2.72
2018-06-17T10:01:20.589Z,2.58
2018-06-17T10:03:49.661Z,2.92
2018-06-17T10:06:18.092Z,2.77
2018-06-17T10:08:47.038Z,2.65
2018-06-17T10:11:15.470Z,2.52
2018-06-17T10:13:44.941Z,3.20
2018-06-17T10:16:15.080Z,3.10
2018-06-17T10:18:43.757Z,2.30
2018-06-17T10:21:12.338Z,2.40
2018-06-17T10:23:41.753Z,2.60
2018-06-17T10:26:10.225Z,2.52
2018-06-17T10:28:38.693Z,2.33
2018-06-17T10:31:08.021Z,2.27
2018-06-17T10:33:37.109Z,2.30
2018-06-17T10:36:05.705Z,2.20
2018-06-17T10:38:34.308Z,2.40
2018-06-17T10:41:03.698Z,2.50
2018-06-17T10:43:33.497Z,2.35
2018-06-17T10:46:02.551Z,1.90
2018-06-17T10:48:31.273Z,2.50
2018-06-17T10:50:59.705Z,2.40
2018-06-17T10:53:28.483Z,2.22
2018-06-17T10:55:57.405Z,2.80
2018-06-17T10:58:25.799Z,2.70
2018-06-17T11:00:54.869Z,2.22
2018-06-17T11:03:23.329Z,2.00
2018-06-17T11:05:52.054Z,2.25
2018-06-17T11:08:20.936Z,2.10
2018-06-17T11:10:50.411Z,2.22
2018-06-17T11:13:18.906Z,2.42
2018-06-17T11:15:47.419Z,2.27
2018-06-17T11:18:15.920Z,2.27
2018-06-17T11:20:44.430Z,2.47
2018-06-17T11:23:13.345Z,2.17
2018-06-17T11:25:42.243Z,2.50
2018-06-17T11:28:10.685Z,1.70
2018-06-17T11:30:39.456Z,3.27
2018-06-17T11:33:07.953Z,3.80
2018-06-17T11:35:36.829Z,3.10
2018-06-17T11:38:05.853Z,3.15
2018-06-17T11:40:34.381Z,3.35
2018-06-17T11:43:02.803Z,4.67
2018-06-17T11:45:31.836Z,2.90
2018-06-17T11:48:01.629Z,2.35
2018-06-17T11:50:30.061Z,2.17
2018-06-17T11:52:58.885Z,2.40
2018-06-17T11:55:27.478Z,2.92
2018-06-17T11:57:55.897Z,2.98
2018-06-17T12:00:24.611Z,3.10
2018-06-17T12:02:53.300Z,3.22
2018-06-17T12:05:21.722Z,3.90
2018-06-17T12:07:50.671Z,3.67
2018-06-17T12:10:19.213Z,3.22
2018-06-17T12:12:48.033Z,3.80
2018-06-17T12:15:16.733Z,3.12
2018-06-17T12:17:45.203Z,3.10
2018-06-17T12:20:13.770Z,2.90
2018-06-17T12:22:42.778Z,3.58
2018-06-17T12:25:11.349Z,2.62
2018-06-17T12:27:40.670Z,2.85
2018-06-17T12:30:09.342Z,2.85
2018-06-17T12:32:37.754Z,2.40
2018-06-17T12:35:06.213Z,2.47
2018-06-17T12:37:34.901Z,2.60
2018-06-17T12:40:03.427Z,2.77
2018-06-17T12:42:31.906Z,2.77
2018-06-17T12:45:00.629Z,2.30
2018-06-17T12:47:29.130Z,2.37
2018-06-17T12:49:57.550Z,2.20
2018-06-17T12:52:26.301Z,2.37
2018-06-17T12:54:55.425Z,2.17
2018-06-17T12:57:24.623Z,2.10
2018-06-17T12:59:53.292Z,2.17
2018-06-17T13:02:21.857Z,2.50
2018-06-17T13:04:50.277Z,2.40
2018-06-17T13:07:19.029Z,2.40
2018-06-17T13:09:47.829Z,2.05
2018-06-17T13:12:16.257Z,2.20
2018-06-17T13:14:44.789Z,2.20
2018-06-17T13:17:13.297Z,2.17
2018-06-17T13:19:41.845Z,2.27
2018-06-17T13:22:10.389Z,2.33
2018-06-17T13:24:38.805Z,2.40
2018-06-17T13:27:07.486Z,2.27
2018-06-17T13:29:36.205Z,2.17
2018-06-17T13:32:04.694Z,2.90
2018-06-17T13:34:34.341Z,2.40
2018-06-17T13:37:02.942Z,2.40
2018-06-17T13:39:32.321Z,2.27
2018-06-17T13:42:00.842Z,2.63
2018-06-17T13:44:30.101Z,2.40
2018-06-17T13:46:58.533Z,2.40
2018-06-17T13:49:26.976Z,2.70
2018-06-17T13:51:55.969Z,3.10
2018-06-17T13:54:24.476Z,3.53
2018-06-17T13:56:52.905Z,2.60
2018-06-17T13:59:21.469Z,3.00
2018-06-17T14:01:50.192Z,2.90
2018-06-17T14:04:18.617Z,2.57
2018-06-17T14:06:47.493Z,2.43
2018-06-17T14:09:16.026Z,2.20
2018-06-17T14:11:44.950Z,2.30
2018-06-17T14:14:14.264Z,2.47
2018-06-17T14:16:43.753Z,2.60
2018-06-17T14:19:12.182Z,2.53
2018-06-17T14:21:40.908Z,2.40
2018-06-17T14:24:09.333Z,2.40
2018-06-17T14:26:37.973Z,2.40
2018-06-17T14:29:07.466Z,2.40
2018-06-17T14:31:36.106Z,2.30
2018-06-17T14:34:04.642Z,2.40
2018-06-17T14:36:33.538Z,2.57
2018-06-17T14:39:03.057Z,2.57
2018-06-17T14:41:31.541Z,2.23
2018-06-17T14:44:05.439Z,2.57
2018-06-17T14:46:38.946Z,2.97
2018-06-17T14:49:12.585Z,2.60
2018-06-17T14:51:46.254Z,3.03
2018-06-17T14:54:15.226Z,3.00
2018-06-17T14:56:49.890Z,4.90
2018-06-17T14:59:18.862Z,2.13
2018-06-17T15:01:47.303Z,2.87
2018-06-17T15:04:15.720Z,2.63
2018-06-17T15:06:44.366Z,2.20
2018-06-17T15:09:12.954Z,2.70
2018-06-17T15:11:41.380Z,2.47
2018-06-17T15:14:10.086Z,2.83
2018-06-17T15:16:38.725Z,2.60
2018-06-17T15:19:07.950Z,3.37
2018-06-17T15:21:36.413Z,3.70
2018-06-17T15:24:05.147Z,3.90
2018-06-17T15:26:33.658Z,3.30
2018-06-17T15:29:02.779Z,2.60
2018-06-17T15:31:36.873Z,3.30
2018-06-17T15:36:17.340Z,3.60
2018-06-17T15:38:53.513Z,3.57
2018-06-17T15:41:28.030Z,4.30
2018-06-17T15:43:58.033Z,3.57
2018-06-17T15:46:27.377Z,4.30
2018-06-17T15:48:55.973Z,4.37
2018-06-17T15:51:24.411Z,4.77
2018-06-17T15:53:52.851Z,4.67
2018-06-17T15:56:21.710Z,5.10
2018-06-17T15:58:50.132Z,4.20
2018-06-17T16:01:18.566Z,5.03
2018-06-17T16:03:47.717Z,6.17
2018-06-17T16:06:16.310Z,5.80
2018-06-17T16:08:44.816Z,5.07
2018-06-17T16:11:13.297Z,5.80
2018-06-17T16:13:46.972Z,6.77
2018-06-17T16:16:20.509Z,6.37
2018-06-17T16:18:54.090Z,5.47
2018-06-17T16:21:22.741Z,6.13
2018-06-17T16:23:51.190Z,5.97
2018-06-17T16:26:19.677Z,6.87
2018-06-17T16:28:48.527Z,7.33
2018-06-17T16:31:16.957Z,7.73
2018-06-17T16:33:45.546Z,9.13
2018-06-17T16:36:14.098Z,8.13
2018-06-17T16:38:42.630Z,7.70
2018-06-17T16:41:11.057Z,8.57
2018-06-17T16:43:39.653Z,6.73
2018-06-17T16:46:08.589Z,6.60
2018-06-17T16:48:37.418Z,7.17
2018-06-17T16:51:10.978Z,6.60
2018-06-17T16:53:44.621Z,6.00
2018-06-17T16:56:18.289Z,7.13
2018-06-17T16:58:52.237Z,5.10
2018-06-17T17:01:20.825Z,6.43
2018-06-17T17:03:50.437Z,5.53
2018-06-17T17:06:18.856Z,7.10
2018-06-17T17:08:47.521Z,6.30
2018-06-17T17:11:15.936Z,6.37
2018-06-17T17:13:44.377Z,7.10
2018-06-17T17:16:13.392Z,8.43
2018-06-17T17:18:41.825Z,8.33
2018-06-17T17:21:10.256Z,8.13
2018-06-17T17:23:39.459Z,8.43
2018-06-17T17:26:07.893Z,7.17
2018-06-17T17:28:36.325Z,7.73
2018-06-17T17:31:05.041Z,8.00
2018-06-17T17:33:38.777Z,9.70
2018-06-17T17:38:17.384Z,8.80
2018-06-17T17:40:49.490Z,8.83
2018-06-17T17:43:18.082Z,8.37
2018-06-17T17:45:52.038Z,8.83
2018-06-17T17:48:20.598Z,9.10
2018-06-17T17:50:49.449Z,9.07
2018-06-17T17:53:17.878Z,7.20
2018-06-17T17:55:47.286Z,7.77
2018-06-17T17:58:15.809Z,7.87
2018-06-17T18:00:44.249Z,7.00
2018-06-17T18:03:13.175Z,7.50
2018-06-17T18:05:41.633Z,7.90
2018-06-17T18:08:10.625Z,8.00
2018-06-17T18:10:39.555Z,8.20
2018-06-17T18:13:08.062Z,7.10
2018-06-17T18:15:36.489Z,7.20
2018-06-17T18:18:05.073Z,7.87
2018-06-17T18:20:33.683Z,8.60
2018-06-17T18:23:02.153Z,8.57
2018-06-17T18:25:35.782Z,9.90
2018-06-17T18:28:09.667Z,12.90
2018-06-17T18:30:43.810Z,14.50
2018-06-17T18:33:17.658Z,16.93
2018-06-17T18:35:51.350Z,22.27
2018-06-17T18:38:20.022Z,12.67
2018-06-17T18:40:48.473Z,13.67
2018-06-17T18:43:17.025Z,13.93
2018-06-17T18:45:45.467Z,10.90
2018-06-17T18:48:14.006Z,11.93
2018-06-17T18:50:43.029Z,14.10
2018-06-17T18:53:11.598Z,15.03
2018-06-17T18:55:40.058Z,18.57
2018-06-17T18:58:08.877Z,16.67
2018-06-17T19:00:37.520Z,21.77
2018-06-17T19:03:05.947Z,17.60
2018-06-17T19:05:34.426Z,19.50
2018-06-17T19:08:03.409Z,18.27
2018-06-17T19:10:38.057Z,19.63
2018-06-17T19:13:11.846Z,17.60
2018-06-17T19:15:45.954Z,18.40
2018-06-17T19:18:14.746Z,18.53
2018-06-17T19:20:43.191Z,20.20
2018-06-17T19:23:12.033Z,19.73
2018-06-17T19:25:40.953Z,17.50
2018-06-17T19:28:09.669Z,15.37
2018-06-17T19:30:38.230Z,18.87
2018-06-17T19:33:06.741Z,16.67
2018-06-17T19:35:35.286Z,14.73
2018-06-17T19:38:03.793Z,18.80
2018-06-17T19:40:32.658Z,14.60
2018-06-17T19:43:01.165Z,19.07
2018-06-17T19:45:29.926Z,13.33
2018-06-17T19:47:58.733Z,14.03
2018-06-17T19:50:32.405Z,11.97
2018-06-17T19:53:06.058Z,11.30
2018-06-17T19:55:39.821Z,12.30
2018-06-17T19:58:13.618Z,11.03
2018-06-17T20:00:43.790Z,10.47
2018-06-17T20:03:12.461Z,8.87
2018-06-17T20:05:40.909Z,10.83
2018-06-17T20:08:09.821Z,11.77
2018-06-17T20:10:38.405Z,12.27
2018-06-17T20:13:06.888Z,12.20
2018-06-17T20:15:35.468Z,11.20
2018-06-17T20:18:04.294Z,10.80
2018-06-17T20:20:32.939Z,11.13
2018-06-17T20:23:02.481Z,12.43
2018-06-17T20:25:30.945Z,11.23
2018-06-17T20:28:00.732Z,13.27
2018-06-17T20:30:29.217Z,11.47
2018-06-17T20:33:03.889Z,13.13
2018-06-17T20:37:42.082Z,11.70
2018-06-17T20:40:15.718Z,12.77
2018-06-17T20:42:49.690Z,12.07
2018-06-17T20:45:18.446Z,12.90
2018-06-17T20:47:47.212Z,17.03
2018-06-17T20:50:15.874Z,15.10
2018-06-17T20:52:44.835Z,16.17
2018-06-17T20:55:13.266Z,14.53
2018-06-17T20:57:41.763Z,14.20
2018-06-17T21:00:10.717Z,13.77
2018-06-17T21:02:39.141Z,12.73
2018-06-17T21:05:07.689Z,12.90
2018-06-17T21:07:36.403Z,12.83
2018-06-17T21:10:05.406Z,10.70
2018-06-17T21:12:33.901Z,11.33
2018-06-17T21:15:07.606Z,9.13
2018-06-17T21:17:36.093Z,11.77
2018-06-17T21:20:10.057Z,10.60
2018-06-17T21:22:43.996Z,10.30
2018-06-17T21:25:17.850Z,9.93
2018-06-17T21:27:50.342Z,11.03
2018-06-17T21:30:19.314Z,9.50
2018-06-17T21:32:48.346Z,9.80
2018-06-17T21:35:17.302Z,10.87
2018-06-17T21:37:45.780Z,11.03
2018-06-17T21:40:14.710Z,10.40
2018-06-17T21:42:49.981Z,11.00
2018-06-17T21:45:18.630Z,9.07
2018-06-17T21:47:47.045Z,6.60
2018-06-17T21:50:16.190Z,7.33
2018-06-17T21:52:45.200Z,6.80
2018-06-17T21:55:14.510Z,5.90
2018-06-17T21:57:43.059Z,5.37
2018-06-17T22:00:12.335Z,4.93
2018-06-17T22:02:43.713Z,4.87
2018-06-17T22:05:12.493Z,4.53
2018-06-17T22:07:46.170Z,3.07
2018-06-17T22:10:20.445Z,4.20
2018-06-17T22:12:54.082Z,3.77
2018-06-17T22:15:27.898Z,4.33
2018-06-17T22:17:56.714Z,3.90
2018-06-17T22:20:28.042Z,4.20
2018-06-17T22:22:56.518Z,4.50
2018-06-17T22:25:25.238Z,3.60
2018-06-17T22:27:53.657Z,4.63
2018-06-17T22:30:22.369Z,2.93
2018-06-17T22:32:51.645Z,3.60
2018-06-17T22:35:20.784Z,3.10
2018-06-17T22:37:49.253Z,4.20
2018-06-17T22:40:18.174Z,3.73
2018-06-17T22:42:47.126Z,3.57
2018-06-17T22:45:16.183Z,2.67
2018-06-17T22:47:49.861Z,3.10
2018-06-17T22:50:19.225Z,2.97
2018-06-17T22:52:58.908Z,2.80
2018-06-17T22:55:28.133Z,3.10
2018-06-17T22:58:02.042Z,3.27
2018-06-17T23:00:35.742Z,3.17
2018-06-17T23:03:09.557Z,3.20
2018-06-17T23:05:43.237Z,2.83
2018-06-17T23:08:17.396Z,2.93
2018-06-17T23:10:46.061Z,3.07
2018-06-17T23:13:14.833Z,2.70
2018-06-17T23:15:43.293Z,2.63
2018-06-17T23:18:11.793Z,2.47
2018-06-17T23:20:40.377Z,2.20
2018-06-17T23:23:09.593Z,2.23
2018-06-17T23:25:38.159Z,3.07
2018-06-17T23:28:06.689Z,2.17
2018-06-17T23:30:36.164Z,2.03
2018-06-17T23:33:04.870Z,2.00
2018-06-17T23:35:33.325Z,2.40
2018-06-17T23:38:02.457Z,1.90
2018-06-17T23:40:30.978Z,2.03
2018-06-17T23:43:00.054Z,1.70
2018-06-17T23:45:28.469Z,1.90
2018-06-17T23:48:02.670Z,1.97
2018-06-17T23:50:37.270Z,1.80
2018-06-17T23:53:10.766Z,2.00
2018-06-17T23:55:44.554Z,1.53
2018-06-17T23:58:13.318Z,1.90
